Portada
METAR-TAF:

METAR-TAF

Aeroports :

Pikeville, Kentucky, Estats Units d'Amèrica

latitud: 37-33-42N, longitud: 082-33-59W, altitud: 449 m

Observació

L'informe es va fer fa 23 minuts, a les 05:15 UTC
Vent 5 kt del Nord/Nord-Oest
Temperatura 18°C
Humitat 64%
Pressió 1017 hPa
Visibilitat: 16.1 km
Cel clar

METAR: KPBX 210515Z AUTO 34005KT 10SM CLR 18/11 A3004 RMK AO2 T01750109

Hora: 01:38 (05:38 UTC)


TAF: manca

Observacions i pronòstics meteorològics de més de 4000 aeroports (METAR i TAF).

Les estacions disponibles són els punts grocs i vermells al mapa.

Posi el ratolí al punt desitjat per veure el nom de l'estació.

Feu clic per veure les observacions i els pronòstics meteorològics.

Per canviar el mapa: feu clic els botons verds amb una creu de color negre per apropar; al botó verd amb un guió per allunyar la imatge; o en les fletxes verdes per a mapes adjacents.


METAR-TAF: